createdAt,value
2018-01-19T00:01:51.398Z,15.70
2018-01-19T00:04:19.533Z,17.80
2018-01-19T00:06:47.687Z,18.73
2018-01-19T00:09:15.836Z,17.98
2018-01-19T00:11:43.993Z,17.25
2018-01-19T00:14:12.129Z,16.98
2018-01-19T00:16:40.281Z,15.73
2018-01-19T00:19:08.430Z,16.30
2018-01-19T00:21:36.601Z,18.10
2018-01-19T00:24:04.754Z,16.73
2018-01-19T00:26:32.925Z,16.05
2018-01-19T00:29:01.825Z,15.48
2018-01-19T00:31:29.977Z,14.77
2018-01-19T00:33:58.889Z,17.02
2018-01-19T00:36:27.053Z,17.65
2018-01-19T00:38:55.953Z,15.18
2018-01-19T00:41:24.110Z,16.27
2018-01-19T00:43:53.015Z,17.45
2018-01-19T00:46:21.169Z,15.15
2018-01-19T00:48:50.079Z,15.15
2018-01-19T00:51:18.244Z,16.12
2018-01-19T00:53:47.146Z,15.85
2018-01-19T00:56:15.302Z,15.25
2018-01-19T00:58:44.207Z,15.80
2018-01-19T01:01:12.361Z,15.35
2018-01-19T01:03:41.261Z,14.18
2018-01-19T01:06:09.430Z,14.57
2018-01-19T01:08:38.334Z,15.23
2018-01-19T01:11:06.489Z,14.73
2018-01-19T01:13:35.393Z,14.10
2018-01-19T01:16:03.553Z,15.63
2018-01-19T01:18:32.462Z,13.88
2018-01-19T01:21:00.629Z,15.10
2018-01-19T01:23:29.526Z,12.18
2018-01-19T01:25:57.658Z,12.10
2018-01-19T01:28:25.821Z,11.30
2018-01-19T01:30:53.962Z,10.70
2018-01-19T01:33:22.120Z,12.15
2018-01-19T01:35:50.253Z,12.02
2018-01-19T01:38:18.418Z,12.02
2018-01-19T01:40:46.550Z,12.77
2018-01-19T01:43:14.710Z,12.68
2018-01-19T01:45:42.847Z,13.88
2018-01-19T01:48:10.997Z,15.35
2018-01-19T01:50:39.128Z,13.35
2018-01-19T01:53:07.287Z,14.10
2018-01-19T01:55:35.417Z,15.90
2018-01-19T01:58:03.574Z,12.98
2018-01-19T02:00:31.716Z,15.60
2018-01-19T02:02:59.873Z,14.87
2018-01-19T02:05:28.011Z,15.23
2018-01-19T02:07:56.161Z,15.35
2018-01-19T02:10:24.312Z,17.90
2018-01-19T02:12:52.470Z,15.63
2018-01-19T02:15:20.596Z,15.88
2018-01-19T02:17:48.764Z,14.80
2018-01-19T02:20:16.901Z,16.52
2018-01-19T02:22:45.057Z,18.37
2018-01-19T02:25:13.192Z,15.15
2018-01-19T02:27:41.358Z,15.07
2018-01-19T02:30:09.483Z,17.98
2018-01-19T02:32:38.410Z,16.15
2018-01-19T02:35:06.550Z,14.75
2018-01-19T02:37:34.713Z,14.98
2018-01-19T02:40:02.850Z,15.75
2018-01-19T02:42:31.025Z,16.80
2018-01-19T02:44:59.156Z,17.73
2018-01-19T02:47:27.325Z,17.33
2018-01-19T02:49:55.460Z,17.17
2018-01-19T02:52:23.618Z,16.00
2018-01-19T02:54:51.749Z,18.20
2018-01-19T02:57:19.912Z,16.52
2018-01-19T02:59:48.045Z,14.30
2018-01-19T03:02:16.206Z,16.25
2018-01-19T03:04:44.353Z,15.68
2018-01-19T03:07:12.513Z,16.10
2018-01-19T03:09:40.652Z,15.68
2018-01-19T03:12:08.819Z,15.27
2018-01-19T03:14:36.956Z,15.25
2018-01-19T03:17:05.114Z,15.68
2018-01-19T03:19:33.244Z,15.57
2018-01-19T03:22:01.397Z,16.52
2018-01-19T03:24:29.534Z,16.20
2018-01-19T03:26:57.688Z,14.60
2018-01-19T03:29:25.827Z,15.18
2018-01-19T03:31:53.993Z,18.15
2018-01-19T03:34:22.126Z,14.60
2018-01-19T03:36:50.297Z,16.33
2018-01-19T03:39:18.429Z,15.77
2018-01-19T03:41:46.593Z,15.23
2018-01-19T03:44:14.725Z,17.27
2018-01-19T03:46:42.884Z,14.32
2018-01-19T03:49:11.016Z,17.58
2018-01-19T03:51:39.152Z,17.35
2018-01-19T03:54:07.312Z,15.63
2018-01-19T03:56:35.444Z,15.98
2018-01-19T03:59:03.610Z,19.05
2018-01-19T04:01:31.740Z,19.73
2018-01-19T04:03:59.906Z,19.10
2018-01-19T04:06:28.041Z,19.37
2018-01-19T04:08:56.208Z,18.12
2018-01-19T04:11:24.342Z,19.70
2018-01-19T04:13:52.496Z,18.00
2018-01-19T04:16:20.633Z,17.50
2018-01-19T04:18:48.784Z,19.62
2018-01-19T04:21:16.918Z,18.65
2018-01-19T04:23:45.099Z,19.17
2018-01-19T04:26:13.232Z,17.30
2018-01-19T04:28:41.398Z,19.80
2018-01-19T04:31:10.304Z,16.92
2018-01-19T04:33:38.467Z,16.58
2018-01-19T04:36:07.362Z,15.35
2018-01-19T04:38:35.521Z,17.42
2018-01-19T04:41:04.429Z,16.45
2018-01-19T04:43:32.588Z,17.80
2018-01-19T04:46:01.484Z,15.55
2018-01-19T04:48:30.417Z,17.50
2018-01-19T04:50:58.555Z,16.92
2018-01-19T04:53:26.710Z,17.52
2018-01-19T04:55:54.847Z,17.42
2018-01-19T04:58:23.007Z,16.73
2018-01-19T05:00:51.132Z,17.17
2018-01-19T05:03:19.288Z,19.58
2018-01-19T05:05:47.416Z,18.90
2018-01-19T05:08:15.582Z,19.80
2018-01-19T05:10:43.704Z,23.92
2018-01-19T05:13:11.867Z,21.37
2018-01-19T05:15:39.998Z,23.90
2018-01-19T05:18:08.159Z,24.12
2018-01-19T05:20:36.300Z,24.77
2018-01-19T05:23:04.457Z,25.80
2018-01-19T05:25:32.593Z,23.95
2018-01-19T05:28:00.749Z,25.65
2018-01-19T05:30:28.885Z,24.60
2018-01-19T05:32:57.046Z,25.52
2018-01-19T05:35:25.176Z,23.20
2018-01-19T05:37:53.338Z,22.65
2018-01-19T05:40:21.469Z,23.48
2018-01-19T05:42:49.646Z,19.98
2018-01-19T05:45:17.777Z,20.73
2018-01-19T05:47:45.938Z,23.52
2018-01-19T05:50:14.074Z,20.25
2018-01-19T05:52:42.248Z,21.92
2018-01-19T05:55:10.381Z,22.55
2018-01-19T05:57:38.619Z,21.10
2018-01-19T06:00:06.750Z,23.30
2018-01-19T06:02:34.913Z,21.42
2018-01-19T06:05:03.047Z,21.20
2018-01-19T06:07:31.215Z,22.87
2018-01-19T06:09:59.355Z,20.70
2018-01-19T06:12:27.505Z,19.60
2018-01-19T06:14:55.645Z,19.30
2018-01-19T06:17:23.830Z,20.98
2018-01-19T06:19:51.985Z,19.90
2018-01-19T06:22:20.874Z,17.98
2018-01-19T06:24:49.038Z,19.73
2018-01-19T06:27:17.949Z,21.35
2018-01-19T06:29:46.101Z,20.25
2018-01-19T06:32:15.007Z,20.35
2018-01-19T06:34:43.181Z,18.42
2018-01-19T06:37:11.322Z,21.83
2018-01-19T06:39:39.490Z,21.33
2018-01-19T06:42:07.623Z,21.95
2018-01-19T06:44:35.784Z,22.33
2018-01-19T06:47:03.922Z,23.23
2018-01-19T06:49:32.091Z,18.90
2018-01-19T06:52:00.226Z,19.50
2018-01-19T06:54:28.443Z,17.25
2018-01-19T06:56:56.576Z,16.08
2018-01-19T06:59:24.733Z,20.88
2018-01-19T07:01:52.901Z,19.35
2018-01-19T07:04:21.089Z,16.40
2018-01-19T07:06:49.229Z,19.50
2018-01-19T07:09:17.417Z,19.83
2018-01-19T07:11:45.548Z,19.00
2018-01-19T07:14:13.713Z,21.77
2018-01-19T07:16:41.856Z,21.27
2018-01-19T07:19:10.022Z,21.77
2018-01-19T07:21:38.154Z,19.58
2018-01-19T07:24:06.322Z,19.80
2018-01-19T07:26:34.444Z,19.45
2018-01-19T07:29:02.609Z,18.25
2018-01-19T07:31:30.757Z,17.25
2018-01-19T07:33:58.910Z,23.20
2018-01-19T07:36:27.038Z,39.30
2018-01-19T07:38:55.226Z,52.20
2018-01-19T07:41:23.357Z,41.50
2018-01-19T07:43:51.523Z,43.22
2018-01-19T07:46:19.668Z,36.08
2018-01-19T07:48:47.825Z,24.70
2018-01-19T07:51:15.958Z,42.90
2018-01-19T07:53:44.112Z,34.30
2018-01-19T07:56:12.241Z,23.73
2018-01-19T07:58:40.401Z,21.73
2018-01-19T08:01:08.534Z,26.40
2018-01-19T08:03:36.688Z,19.60
2018-01-19T08:06:04.817Z,20.08
2018-01-19T08:08:32.982Z,20.60
2018-01-19T08:11:01.117Z,23.55
2018-01-19T08:13:29.289Z,21.40
2018-01-19T08:15:57.418Z,21.92
2018-01-19T08:18:25.565Z,19.80
2018-01-19T08:20:53.706Z,21.85
2018-01-19T08:23:21.866Z,18.77
2018-01-19T08:25:49.999Z,26.30
2018-01-19T08:28:18.922Z,17.90
2018-01-19T08:30:47.052Z,19.30
2018-01-19T08:33:15.213Z,21.70
2018-01-19T08:35:43.341Z,17.90
2018-01-19T08:38:11.513Z,21.15
2018-01-19T08:40:39.668Z,19.77
2018-01-19T08:43:07.803Z,18.23
2018-01-19T08:45:35.962Z,18.25
2018-01-19T08:48:04.105Z,18.67
2018-01-19T08:50:32.298Z,19.87
2018-01-19T08:53:01.193Z,19.02
2018-01-19T08:55:29.404Z,17.23
2018-01-19T08:57:57.546Z,16.40
2018-01-19T09:00:25.700Z,16.77
2018-01-19T09:02:53.857Z,17.27
2018-01-19T09:05:22.017Z,16.65
2018-01-19T09:07:50.155Z,17.40
2018-01-19T09:10:18.316Z,16.20
2018-01-19T09:12:46.477Z,14.60
2018-01-19T09:15:15.429Z,15.38
2018-01-19T09:17:44.381Z,15.35
2018-01-19T09:20:12.537Z,15.55
2018-01-19T09:22:41.438Z,16.52
2018-01-19T09:25:09.626Z,14.18
2018-01-19T09:27:37.761Z,14.87
2018-01-19T09:30:05.921Z,15.48
2018-01-19T09:32:34.053Z,16.33
2018-01-19T09:35:02.214Z,14.87
2018-01-19T09:37:30.348Z,15.00
2018-01-19T09:39:58.513Z,13.95
2018-01-19T09:42:26.644Z,13.65
2018-01-19T09:44:55.566Z,13.23
2018-01-19T09:47:23.695Z,16.95
2018-01-19T09:49:51.867Z,13.10
2018-01-19T09:52:20.002Z,12.50
2018-01-19T09:54:48.152Z,13.25
2018-01-19T09:57:16.300Z,12.45
2018-01-19T09:59:44.469Z,13.60
2018-01-19T10:02:12.606Z,10.90
2018-01-19T10:04:40.759Z,11.32
2018-01-19T10:07:08.906Z,11.45
2018-01-19T10:09:37.076Z,11.70
2018-01-19T10:12:05.218Z,11.30
2018-01-19T10:14:33.414Z,11.32
2018-01-19T10:17:01.580Z,9.48
2018-01-19T10:19:29.759Z,11.35
2018-01-19T10:21:57.909Z,9.57
2018-01-19T10:24:26.066Z,11.93
2018-01-19T10:26:54.202Z,11.77
2018-01-19T10:29:22.364Z,10.40
2018-01-19T10:31:50.496Z,10.13
2018-01-19T10:34:18.653Z,35.22
2018-01-19T10:36:46.786Z,32.55
2018-01-19T10:39:14.957Z,27.25
2018-01-19T10:41:43.094Z,31.02
2018-01-19T10:44:11.244Z,17.80
2018-01-19T10:46:39.372Z,13.77
2018-01-19T10:49:07.542Z,13.35
2018-01-19T10:51:35.684Z,12.70
2018-01-19T10:54:03.845Z,12.75
2018-01-19T10:56:32.749Z,14.85
2018-01-19T10:59:00.942Z,11.63
2018-01-19T11:01:29.084Z,11.27
2018-01-19T11:03:57.236Z,11.25
2018-01-19T11:06:25.370Z,11.88
2018-01-19T11:08:53.511Z,13.27
2018-01-19T11:11:22.445Z,12.40
2018-01-19T11:13:50.583Z,12.40
2018-01-19T11:16:18.762Z,13.68
2018-01-19T11:18:46.910Z,13.00
2018-01-19T11:21:15.065Z,11.48
2018-01-19T11:23:43.197Z,12.10
2018-01-19T11:26:11.488Z,10.65
2018-01-19T11:28:39.637Z,12.02
2018-01-19T11:31:07.793Z,11.60
2018-01-19T11:33:35.912Z,10.80
2018-01-19T11:36:04.096Z,9.80
2018-01-19T11:38:32.273Z,10.20
2018-01-19T11:41:00.430Z,11.00
2018-01-19T11:43:28.573Z,10.55
2018-01-19T11:45:56.725Z,9.80
2018-01-19T11:48:25.620Z,9.55
2018-01-19T11:50:53.782Z,10.02
2018-01-19T11:53:22.682Z,10.70
2018-01-19T11:55:50.883Z,10.23
2018-01-19T11:58:18.993Z,9.85
2018-01-19T12:00:47.158Z,9.98
2018-01-19T12:03:15.281Z,9.55
2018-01-19T12:05:43.449Z,9.07
2018-01-19T12:08:12.341Z,9.02
2018-01-19T12:10:40.503Z,11.77
2018-01-19T12:13:09.401Z,10.60
2018-01-19T12:15:37.573Z,11.65
2018-01-19T12:18:06.478Z,10.27
2018-01-19T12:20:34.728Z,10.35
2018-01-19T12:23:02.870Z,10.90
2018-01-19T12:25:31.104Z,10.95
2018-01-19T12:27:59.247Z,10.55
2018-01-19T12:30:27.405Z,11.88
2018-01-19T12:32:55.594Z,11.38
2018-01-19T12:35:23.788Z,10.25
2018-01-19T12:37:51.949Z,12.55
2018-01-19T12:40:20.116Z,10.52
2018-01-19T12:42:49.074Z,12.23
2018-01-19T12:45:17.239Z,10.70
2018-01-19T12:47:45.383Z,10.82
2018-01-19T12:50:13.540Z,11.52
2018-01-19T12:52:41.685Z,11.65
2018-01-19T12:55:09.844Z,10.18
2018-01-19T12:57:37.983Z,11.73
2018-01-19T13:00:06.146Z,11.75
2018-01-19T13:02:34.282Z,11.70
2018-01-19T13:05:02.439Z,11.10
2018-01-19T13:07:30.561Z,11.63
2018-01-19T13:09:58.726Z,10.95
2018-01-19T13:12:26.861Z,11.52
2018-01-19T13:14:55.016Z,10.73
2018-01-19T13:17:23.149Z,9.93
2018-01-19T13:19:51.308Z,10.45
2018-01-19T13:22:19.444Z,10.48
2018-01-19T13:24:47.614Z,11.07
2018-01-19T13:27:15.772Z,9.75
2018-01-19T13:29:43.928Z,10.88
2018-01-19T13:32:12.062Z,10.85
2018-01-19T13:34:40.219Z,11.63
2018-01-19T13:37:08.397Z,9.38
2018-01-19T13:39:36.535Z,10.90
2018-01-19T13:42:04.680Z,11.40
2018-01-19T13:44:32.809Z,12.55
2018-01-19T13:47:01.014Z,11.43
2018-01-19T13:49:29.150Z,13.20
2018-01-19T13:51:57.305Z,14.45
2018-01-19T13:54:25.453Z,14.40
2018-01-19T13:56:53.615Z,13.48
2018-01-19T13:59:21.776Z,16.40
2018-01-19T14:01:50.704Z,15.43
2018-01-19T14:04:18.850Z,13.40
2018-01-19T14:06:47.773Z,15.18
2018-01-19T14:09:15.905Z,15.80
2018-01-19T14:11:44.833Z,14.73
2018-01-19T14:14:12.967Z,14.10
2018-01-19T14:16:41.895Z,14.63
2018-01-19T14:19:10.081Z,16.00
2018-01-19T14:21:38.265Z,13.70
2018-01-19T14:24:06.433Z,15.75
2018-01-19T14:26:34.605Z,15.80
2018-01-19T14:29:02.735Z,15.57
2018-01-19T14:31:30.888Z,17.17
2018-01-19T14:33:59.088Z,15.82
2018-01-19T14:36:28.035Z,18.80
2018-01-19T14:38:56.228Z,16.52
2018-01-19T14:41:24.394Z,19.42
2018-01-19T14:43:52.521Z,18.75
2018-01-19T14:46:20.673Z,16.00
2018-01-19T14:48:48.827Z,20.17
2018-01-19T14:51:16.993Z,18.90
2018-01-19T14:53:45.145Z,20.00
2018-01-19T14:56:13.306Z,17.77
2018-01-19T14:58:41.442Z,19.87
2018-01-19T15:01:09.612Z,18.60
2018-01-19T15:03:37.745Z,19.05
2018-01-19T15:06:05.966Z,19.55
2018-01-19T15:08:34.098Z,21.25
2018-01-19T15:11:02.271Z,18.62
2018-01-19T15:13:30.402Z,19.42
2018-01-19T15:15:58.630Z,19.83
2018-01-19T15:18:26.769Z,19.52
2018-01-19T15:20:54.999Z,19.77
2018-01-19T15:23:23.206Z,22.35
2018-01-19T15:25:51.470Z,23.25
2018-01-19T15:28:19.723Z,23.60
2018-01-19T15:30:48.697Z,20.37
2018-01-19T15:33:16.856Z,25.08
2018-01-19T15:35:45.018Z,26.67
2018-01-19T15:38:13.195Z,25.17
2018-01-19T15:40:41.367Z,23.02
2018-01-19T15:43:09.554Z,21.92
2018-01-19T15:45:37.737Z,24.20
2018-01-19T15:48:05.910Z,24.87
2018-01-19T15:50:34.089Z,24.12
2018-01-19T15:53:02.241Z,23.42
2018-01-19T15:55:30.397Z,23.25
2018-01-19T15:57:58.630Z,20.52
2018-01-19T16:00:26.767Z,22.98
2018-01-19T16:02:54.952Z,25.80
2018-01-19T16:05:23.162Z,25.02
2018-01-19T16:07:51.514Z,25.90
2018-01-19T16:10:19.677Z,23.48
2018-01-19T16:12:47.958Z,20.50
2018-01-19T16:15:16.207Z,20.42
2018-01-19T16:17:44.390Z,22.00
2018-01-19T16:20:12.842Z,20.48
2018-01-19T16:22:41.019Z,19.55
2018-01-19T16:25:09.214Z,17.85
2018-01-19T16:27:37.435Z,18.35
2018-01-19T16:30:05.608Z,17.70
2018-01-19T16:32:33.779Z,20.35
2018-01-19T16:35:01.981Z,17.90
2018-01-19T16:37:30.171Z,19.70
2018-01-19T16:39:58.308Z,18.17
2018-01-19T16:42:26.466Z,19.12
2018-01-19T16:44:55.384Z,18.73
2018-01-19T16:47:23.582Z,18.35
2018-01-19T16:49:51.736Z,18.40
2018-01-19T16:52:19.906Z,19.02
2018-01-19T16:54:48.037Z,19.87
2018-01-19T16:57:16.963Z,19.42
2018-01-19T16:59:45.097Z,21.95
2018-01-19T17:02:13.245Z,21.20
2018-01-19T17:04:41.390Z,21.10
2018-01-19T17:07:09.555Z,21.15
2018-01-19T17:09:37.709Z,20.50
2018-01-19T17:12:06.633Z,22.50
2018-01-19T17:14:34.800Z,21.00
2018-01-19T17:17:02.965Z,18.92
2018-01-19T17:19:31.119Z,20.62
2018-01-19T17:21:59.288Z,22.75
2018-01-19T17:24:28.189Z,23.85
2018-01-19T17:27:01.524Z,21.10
2018-01-19T17:29:29.666Z,20.88
2018-01-19T17:31:57.846Z,22.50
2018-01-19T17:34:26.008Z,23.10
2018-01-19T17:36:54.215Z,22.27
2018-01-19T17:39:22.440Z,24.30
2018-01-19T17:41:50.685Z,21.25
2018-01-19T17:44:19.499Z,19.42
2018-01-19T17:46:48.269Z,25.77
2018-01-19T17:49:17.666Z,22.30
2018-01-19T17:51:46.223Z,22.17
2018-01-19T17:54:14.601Z,21.58
2018-01-19T17:56:43.237Z,21.87
2018-01-19T17:59:12.106Z,22.77
2018-01-19T18:01:41.118Z,20.83
2018-01-19T18:04:09.650Z,21.92
2018-01-19T18:06:38.290Z,22.00
2018-01-19T18:09:07.119Z,21.42
2018-01-19T18:11:35.902Z,18.02
2018-01-19T18:14:04.904Z,23.12
2018-01-19T18:16:33.924Z,21.25
2018-01-19T18:19:02.101Z,20.58
2018-01-19T18:21:30.275Z,22.52
2018-01-19T18:23:58.428Z,25.10
2018-01-19T18:26:26.599Z,24.12
2018-01-19T18:28:54.751Z,23.40
2018-01-19T18:31:22.949Z,21.20
2018-01-19T18:33:51.086Z,21.33
2018-01-19T18:36:19.337Z,20.15
2018-01-19T18:38:47.992Z,20.88
2018-01-19T18:41:16.191Z,21.00
2018-01-19T18:43:44.365Z,20.27
2018-01-19T18:46:13.287Z,18.55
2018-01-19T18:48:41.947Z,20.23
2018-01-19T18:51:10.612Z,18.27
2018-01-19T18:53:39.026Z,20.60
2018-01-19T18:56:07.204Z,19.85
2018-01-19T18:58:35.365Z,20.65
2018-01-19T19:01:03.541Z,16.80
2018-01-19T19:03:31.742Z,21.42
2018-01-19T19:05:59.933Z,20.95
2018-01-19T19:08:28.068Z,21.60
2018-01-19T19:10:56.254Z,22.62
2018-01-19T19:13:24.438Z,23.33
2018-01-19T19:15:52.834Z,22.65
2018-01-19T19:18:21.138Z,22.20
2018-01-19T19:20:49.337Z,21.90
2018-01-19T19:23:17.959Z,21.65
2018-01-19T19:25:46.549Z,24.00
2018-01-19T19:28:14.759Z,22.67
2018-01-19T19:30:42.940Z,24.95
2018-01-19T19:33:11.882Z,26.58
2018-01-19T19:35:40.169Z,26.58
2018-01-19T19:38:08.368Z,24.60
2018-01-19T19:40:36.503Z,25.80
2018-01-19T19:43:04.786Z,24.15
2018-01-19T19:45:32.929Z,23.70
2018-01-19T19:48:01.086Z,24.23
2018-01-19T19:50:29.570Z,15.27
2018-01-19T19:52:57.966Z,25.62
2018-01-19T19:55:26.094Z,26.25
2018-01-19T19:57:54.253Z,26.80
2018-01-19T20:00:22.389Z,23.90
2018-01-19T20:02:50.570Z,27.25
2018-01-19T20:05:18.723Z,23.80
2018-01-19T20:07:47.770Z,22.62
2018-01-19T20:10:15.909Z,24.50
2018-01-19T20:12:44.092Z,26.17
2018-01-19T20:15:12.218Z,24.92
2018-01-19T20:17:41.136Z,28.33
2018-01-19T20:20:09.272Z,25.27
2018-01-19T20:22:38.225Z,27.02
2018-01-19T20:25:06.358Z,27.90
2018-01-19T20:27:34.514Z,28.55
2018-01-19T20:30:02.767Z,26.37
2018-01-19T20:32:30.925Z,28.95
2018-01-19T20:34:59.057Z,29.33
2018-01-19T20:37:27.209Z,27.33
2018-01-19T20:39:55.379Z,28.65
2018-01-19T20:42:23.540Z,26.30
2018-01-19T20:44:51.674Z,28.58
2018-01-19T20:47:19.832Z,28.02
2018-01-19T20:49:48.018Z,26.85
2018-01-19T20:52:16.150Z,26.67
2018-01-19T20:54:45.053Z,27.90
2018-01-19T20:57:14.075Z,26.75
2018-01-19T20:59:42.219Z,28.87
2018-01-19T21:02:11.170Z,28.90
2018-01-19T21:04:39.304Z,29.65
2018-01-19T21:07:07.483Z,28.85
2018-01-19T21:09:35.671Z,30.25
2018-01-19T21:12:03.807Z,28.80
2018-01-19T21:14:31.962Z,29.60
2018-01-19T21:17:00.099Z,29.35
2018-01-19T21:19:28.280Z,26.30
2018-01-19T21:21:56.460Z,28.52
2018-01-19T21:24:24.708Z,29.02
2018-01-19T21:26:52.956Z,29.87
2018-01-19T21:29:21.149Z,29.67
2018-01-19T21:31:49.337Z,29.45
2018-01-19T21:34:17.493Z,27.95
2018-01-19T21:36:45.665Z,28.00
2018-01-19T21:39:13.839Z,31.17
2018-01-19T21:41:42.009Z,26.85
2018-01-19T21:44:10.183Z,31.45
2018-01-19T21:46:38.368Z,27.37
2018-01-19T21:49:06.542Z,28.48
2018-01-19T21:51:35.464Z,29.17
2018-01-19T21:54:03.727Z,27.98
2018-01-19T21:56:31.906Z,28.38
2018-01-19T21:59:00.214Z,28.52
2018-01-19T22:01:28.547Z,29.10
2018-01-19T22:03:56.749Z,25.50
2018-01-19T22:06:24.936Z,26.75
2018-01-19T22:08:53.196Z,26.23
2018-01-19T22:11:21.453Z,26.83
2018-01-19T22:13:49.658Z,27.62
2018-01-19T22:16:17.808Z,27.62
2018-01-19T22:18:46.764Z,28.33
2018-01-19T22:21:14.909Z,30.12
2018-01-19T22:23:43.845Z,27.87
2018-01-19T22:26:12.038Z,30.37
2018-01-19T22:28:40.230Z,30.60
2018-01-19T22:31:08.384Z,27.55
2018-01-19T22:33:36.610Z,29.55
2018-01-19T22:36:04.740Z,29.50
2018-01-19T22:38:32.898Z,28.83
2018-01-19T22:41:01.026Z,30.62
2018-01-19T22:43:29.205Z,27.58
2018-01-19T22:45:57.334Z,27.73
2018-01-19T22:48:25.497Z,30.62
2018-01-19T22:50:53.630Z,28.33
2018-01-19T22:53:21.833Z,31.10
2018-01-19T22:55:49.974Z,27.10
2018-01-19T22:58:18.143Z,29.00
2018-01-19T23:00:46.313Z,27.50
2018-01-19T23:03:14.469Z,25.75
2018-01-19T23:05:42.595Z,25.95
2018-01-19T23:08:10.750Z,26.50
2018-01-19T23:10:38.886Z,25.15
2018-01-19T23:13:07.040Z,25.23
2018-01-19T23:15:35.185Z,25.27
2018-01-19T23:18:03.342Z,27.92
2018-01-19T23:20:31.504Z,27.42
2018-01-19T23:22:59.673Z,25.52
2018-01-19T23:25:27.832Z,28.10
2018-01-19T23:27:56.753Z,27.05
2018-01-19T23:30:24.895Z,25.30
2018-01-19T23:32:53.786Z,21.12
2018-01-19T23:35:21.954Z,23.90
2018-01-19T23:37:50.850Z,26.92
2018-01-19T23:40:19.006Z,23.98
2018-01-19T23:42:47.134Z,23.75
2018-01-19T23:45:15.317Z,26.60
2018-01-19T23:47:43.449Z,24.42
2018-01-19T23:50:11.641Z,23.50
2018-01-19T23:52:39.772Z,24.70
2018-01-19T23:55:07.954Z,26.27
2018-01-19T23:57:36.082Z,24.80
